This is the latest recevied weather packets stored in our database for station/object W2GRK-15. If no packets are shown the sender has not sent any weather packets the latest 10 day(s).
| Time | Temp. | Humidity | Pressure | Rain* | Wind** | Luminosity | Snow |
|---|---|---|---|---|---|---|---|
| 1777677687 | 16.67° C | 42% | 1011.1 hPa | 0 mm | - | 11 W/m² | - |
| 1777677558 | 16.67° C | 42% | 1011 hPa | 0 mm | - | 15 W/m² | - |
| 1777677530 | 16.67° C | 42% | 1011 hPa | 0 mm | - | 16 W/m² | - |
| 1777677268 | 16.67° C | 43% | 1011.2 hPa | 0 mm | - | 18 W/m² | - |
| 1777676962 | 16.67° C | 44% | 1011 hPa | 0 mm | - | 16 W/m² | - |
| 1777676785 | 16.67° C | 42% | 1011 hPa | 0 mm | - | 15 W/m² | - |
| 1777676563 | 16.67° C | 41% | 1011 hPa | 0 mm | - | 15 W/m² | - |
| 1777675903 | 17.22° C | 42% | 1011 hPa | 0 mm | - | 26 W/m² | - |
| 1777675576 | 17.22° C | 41% | 1011 hPa | 0 mm | - | 30 W/m² | - |
| 1777674451 | 17.78° C | 40% | 1010.7 hPa | 0 mm | - | 64 W/m² | - |
| 1777674209 | 17.78° C | 41% | 1010.9 hPa | 0 mm | - | 50 W/m² | - |
| 1777674032 | 17.22° C | 41% | 1011 hPa | 0 mm | - | 41 W/m² | - |
| 1777673789 | 17.22° C | 41% | 1010.9 hPa | 0 mm | - | 47 W/m² | - |
| 1777673725 | 17.22° C | 41% | 1011.1 hPa | 0 mm | - | 48 W/m² | - |
| 1777673660 | 17.22° C | 41% | 1011.1 hPa | 0 mm | - | 49 W/m² | - |
| 1777673596 | 17.22° C | 42% | 1010.9 hPa | 0 mm | - | 48 W/m² | - |
| 1777673370 | 17.22° C | 42% | 1011.1 hPa | 0 mm | - | 49 W/m² | - |
| 1777673306 | 17.22° C | 41% | 1011 hPa | 0 mm | - | 50 W/m² | - |
| 1777673129 | 17.78° C | 41% | 1011.1 hPa | 0 mm | - | 53 W/m² | - |
| 1777672537 | 17.22° C | 42% | 1011 hPa | 0 mm | - | 49 W/m² | - |
| 1777672488 | 17.22° C | 43% | 1011.2 hPa | 0 mm | - | 49 W/m² | - |
| 1777672098 | 17.22° C | 44% | 1011.1 hPa | 0 mm | - | 51 W/m² | - |
| 1777671921 | 17.22° C | 43% | 1011.1 hPa | 0 mm | - | 52 W/m² | - |
| 1777671389 | 17.22° C | 43% | 1011.3 hPa | 0 mm | - | 49 W/m² | - |
| 1777671345 | 17.22° C | 42% | 1011.2 hPa | 0 mm | - | 50 W/m² | - |
* Rain latest hour (hover to see other rain measurements)
** Current wind speed in m/s (hover to see current wind gust speed)